This demonstration page uses our WeatherBlox Daily Observations layout. Learn more.

39.29038, -76.61219

Hourly Observations for July 29, 2015

Temp ( °F °C ) Dew Point ( °F °C ) Humidity (%) Winds ( mph kmh ) Pressure ( in mb ) Visibility ( mi km ) Precip ( " mm )
12:54 am 00:54 Mostly Clear 79 26 72 22 79 79 undefined N/A 30 1016 N/A 0 0
1:54 am 01:54 Mostly Clear 79 26 72 22 79 79 undefined N/A 30 1016 N/A 0 0
2:54 am 02:54 Mostly Cloudy 77 25 72 22 83 83 undefined N/A 30 1016 N/A 0 0
3:54 am 03:54 undefined 77 25 72 22 83 83 undefined N/A 29.97 1015 N/A 0 0
4:54 am 04:54 Cloudy 75 24 72 22 89 89 undefined N/A 29.97 1015 N/A 0 0
5:54 am 05:54 undefined 75 24 72 22 89 89 undefined N/A 30 1016 N/A 0 0
6:54 am 06:54 Partly Cloudy 77 25 72 22 83 83 undefined N/A 30 1016 N/A 0 0
7:54 am 07:54 Mostly Sunny 79 26 73 23 84 84 undefined N/A 30 1016 N/A 0 0
8:54 am 08:54 Sunny 81 27 73 23 79 79 undefined N/A 30 1016 N/A 0 0
9:54 am 09:54 Sunny 84 29 73 23 70 70 undefined N/A 30 1016 N/A 0 0
10:54 am 10:54 undefined 86 30 72 22 62 62 undefined N/A 30 1016 N/A 0 0
11:54 am 11:54 undefined 88 31 73 23 62 62 undefined N/A 30 1016 N/A 0 0
12:54 pm 12:54 undefined 86 30 73 23 66 66 undefined N/A 30 1016 N/A 0 0
1:54 pm 13:54 undefined 81 27 73 23 79 79 undefined N/A 30 1016 N/A 0.12 3.048
2:54 pm 14:54 Mostly Cloudy 79 26 73 23 84 84 undefined N/A 30 1016 N/A 0.04 1.016
3:54 pm 15:54 Cloudy 79 26 73 23 84 84 undefined N/A 29.97 1015 N/A 0.01 0.254
4:54 pm 16:54 Cloudy 79 26 75 24 89 89 undefined N/A 29.97 1015 N/A 0 0
5:54 pm 17:54 Partly Cloudy 81 27 75 24 84 84 undefined N/A 29.94 1014 N/A 0 0
6:54 pm 18:54 undefined 79 26 75 24 89 89 undefined N/A 29.94 1014 N/A 0.01 0.254
7:54 pm 19:54 undefined 81 27 75 24 84 84 undefined N/A 29.94 1014 N/A 0.01 0.254
8:54 pm 20:54 Cloudy 79 26 75 24 89 89 undefined N/A 29.94 1014 N/A 0 0
9:54 pm 21:54 Mostly Cloudy 81 27 75 24 84 84 undefined N/A 29.97 1015 N/A 0.06 1.524
10:54 pm 22:54 Cloudy 81 27 75 24 84 84 undefined N/A 29.94 1014 N/A 0 0
11:54 pm 23:54 Mostly Cloudy 79 26 73 23 84 84 undefined N/A 29.94 1014 N/A 0 0

Powered by AerisWeather